Auburn, Indiana
Current Conditions -  °F | °C
As of 3:35 PM on Sunday 21 Dec 2014 (Local Time) from KGWB Reporting Station
Scattered Clouds Scattered Clouds  
Wind Chill: 36°   Ceiling: Unl
Heat Index: 36°   Visibility: 7mi
Dew Point: 27°   Wind: 3mph
Humidity: 70%   Direction: 140°SE
Pressure: 30.19"   Gusts: NA
Location:  41.37°N, 85.05°W
Report Text: KGWB 212035Z AUTO 14003KT 7SM SCT050 02/M03 A3019 RMK AO2
Loading
Personal Weather Stations






























Interactive Weather Map New forecast layout! Learn more

10-Day Weather Forecast

Advertisements
Track Severe Weather on mobile